Laida — EAVE — position and weather

sailwx.info

Track history (hours):
 
Tides and Currents Weather Stations Pressure Air Temp Water Temp Dewpoint Dewpoint Depression Visibility Wind Speed Wind Dir Waves Ship Positions

Laida

Last reported at 2018-Apr-21 20:58 UTC. Time now 2018-Apr-21 21:07 UTC.
Position N 47°29' W 006°20'.

Length 100 m; draft 5 m.

Type: Ship (hazmat cat A). MMSI: 224509000.

Date/timePositionNaut miles runAvg speedWind from/ knotsBaromVisibWave heightAir tempDewpointWater temp
2018-Apr-21 20:58N 47°29' W 006°20'1111.0
2018-Apr-21 19:58N 47°19' W 006°26'  
2018-Apr-18 06:06N 43°48' W 007°58'1 9.5
2018-Apr-18 06:00N 43°49' W 007°57'5 9.0
2018-Apr-18 05:27N 43°51' W 007°50'4 9.1
2018-Apr-18 05:00N 43°51' W 007°45'5 9.3
2018-Apr-18 04:30N 43°51' W 007°38'5 9.7
2018-Apr-18 04:00N 43°50' W 007°32'510.1
2018-Apr-18 03:30N 43°49' W 007°25'7310.4
2018-Apr-17 20:32N 43°40' W 005°45'110.5
2018-Apr-17 20:28N 43°40' W 005°45'6 8.8
2018-Apr-17 19:44N 43°34' W 005°41'1 1.5
2018-Apr-17 19:12N 43°34' W 005°42'0 0.0
2018-Apr-17 18:54N 43°34' W 005°42'0 0.0
2018-Apr-17 18:30N 43°34' W 005°42'0 0.0
2018-Apr-17 18:00N 43°34' W 005°42'0 0.0
2018-Apr-17 17:30N 43°34' W 005°42'0 0.0
2018-Apr-17 17:00N 43°34' W 005°42'0 0.0
2018-Apr-17 16:30N 43°34' W 005°42'0 0.0
2018-Apr-17 16:00N 43°34' W 005°42'0 0.0
2018-Apr-17 11:42N 43°34' W 005°42'0 0.0
2018-Apr-17 11:30N 43°34' W 005°42'0 0.0
2018-Apr-17 10:18N 43°34' W 005°42'0 0.0
2018-Apr-17 10:00N 43°34' W 005°42'0 0.0
2018-Apr-17 09:24N 43°34' W 005°42'0 0.0
2018-Apr-17 09:00N 43°34' W 005°42'0 0.0
2018-Apr-17 08:30N 43°34' W 005°42'0 0.0
2018-Apr-17 08:00N 43°34' W 005°42'0 0.0
2018-Apr-17 07:30N 43°34' W 005°42'0 0.0
2018-Apr-17 06:54N 43°34' W 005°42'0 0.0
2018-Apr-17 06:30N 43°34' W 005°42'0 0.5
2018-Apr-17 06:00N 43°34' W 005°41'3 5.7
2018-Apr-17 05:30N 43°35' W 005°38'510.5
2018-Apr-17 05:00N 43°35' W 005°31'1210.3
2018-Apr-17 03:48N 43°35' W 005°14'8510.1
2018-Apr-16 19:25N 43°30' W 003°17'511.1
2018-Apr-16 19:00N 43°26' W 003°12'610.7
2018-Apr-16 18:27N 43°23' W 003°05'1 0.0
2018-Apr-15 04:59N 43°23' W 003°05'6 8.4
2018-Apr-15 04:18N 43°27' W 003°10'311.7
2018-Apr-15 04:00N 43°28' W 003°14'8911.9
2018-Apr-14 20:28N 43°40' W 005°17'911.5
2018-Apr-14 19:39N 43°41' W 005°30'211.8
2018-Apr-14 19:26N 43°41' W 005°33'511.3
2018-Apr-14 18:59N 43°41' W 005°40'3 6.1
2018-Apr-14 18:29N 43°41' W 005°45'3 5.8
2018-Apr-14 18:00N 43°41' W 005°48'5 8.7
2018-Apr-14 17:25N 43°40' W 005°56'3 5.0
2018-Apr-14 16:47N 43°38' W 005°58'  
Track history (hours):
 
Tides and Currents Weather Stations Pressure Air Temp Water Temp Dewpoint Dewpoint Depression Visibility Wind Speed Wind Dir Waves Ship Positions

Laida

Last reported at 2018-Apr-21 20:58 UTC. Time now 2018-Apr-21 21:07 UTC.
Position N 47°29' W 006°20'.

Length 100 m; draft 5 m.

Type: Ship (hazmat cat A). MMSI: 224509000.

Date/timePositionNaut miles runAvg speedWind from/ knotsBaromVisibWave heightAir tempDewpointWater temp
2018-Apr-21 20:58N 47°29' W 006°20'1111.0
2018-Apr-21 19:58N 47°19' W 006°26'  
2018-Apr-18 06:06N 43°48' W 007°58'1 9.5
2018-Apr-18 06:00N 43°49' W 007°57'5 9.0
2018-Apr-18 05:27N 43°51' W 007°50'4 9.1
2018-Apr-18 05:00N 43°51' W 007°45'5 9.3
2018-Apr-18 04:30N 43°51' W 007°38'5 9.7
2018-Apr-18 04:00N 43°50' W 007°32'510.1
2018-Apr-18 03:30N 43°49' W 007°25'7310.4
2018-Apr-17 20:32N 43°40' W 005°45'110.5
2018-Apr-17 20:28N 43°40' W 005°45'6 8.8
2018-Apr-17 19:44N 43°34' W 005°41'1 1.5
2018-Apr-17 19:12N 43°34' W 005°42'0 0.0
2018-Apr-17 18:54N 43°34' W 005°42'0 0.0
2018-Apr-17 18:30N 43°34' W 005°42'0 0.0
2018-Apr-17 18:00N 43°34' W 005°42'0 0.0
2018-Apr-17 17:30N 43°34' W 005°42'0 0.0
2018-Apr-17 17:00N 43°34' W 005°42'0 0.0
2018-Apr-17 16:30N 43°34' W 005°42'0 0.0
2018-Apr-17 16:00N 43°34' W 005°42'0 0.0
2018-Apr-17 11:42N 43°34' W 005°42'0 0.0
2018-Apr-17 11:30N 43°34' W 005°42'0 0.0
2018-Apr-17 10:18N 43°34' W 005°42'0 0.0
2018-Apr-17 10:00N 43°34' W 005°42'0 0.0
2018-Apr-17 09:24N 43°34' W 005°42'0 0.0
2018-Apr-17 09:00N 43°34' W 005°42'0 0.0
2018-Apr-17 08:30N 43°34' W 005°42'0 0.0
2018-Apr-17 08:00N 43°34' W 005°42'0 0.0
2018-Apr-17 07:30N 43°34' W 005°42'0 0.0
2018-Apr-17 06:54N 43°34' W 005°42'0 0.0
2018-Apr-17 06:30N 43°34' W 005°42'0 0.5
2018-Apr-17 06:00N 43°34' W 005°41'3 5.7
2018-Apr-17 05:30N 43°35' W 005°38'510.5
2018-Apr-17 05:00N 43°35' W 005°31'1210.3
2018-Apr-17 03:48N 43°35' W 005°14'8510.1
2018-Apr-16 19:25N 43°30' W 003°17'511.1
2018-Apr-16 19:00N 43°26' W 003°12'610.7
2018-Apr-16 18:27N 43°23' W 003°05'1 0.0
2018-Apr-15 04:59N 43°23' W 003°05'6 8.4
2018-Apr-15 04:18N 43°27' W 003°10'311.7
2018-Apr-15 04:00N 43°28' W 003°14'8911.9
2018-Apr-14 20:28N 43°40' W 005°17'911.5
2018-Apr-14 19:39N 43°41' W 005°30'211.8
2018-Apr-14 19:26N 43°41' W 005°33'511.3
2018-Apr-14 18:59N 43°41' W 005°40'3 6.1
2018-Apr-14 18:29N 43°41' W 005°45'3 5.8
2018-Apr-14 18:00N 43°41' W 005°48'5 8.7
2018-Apr-14 17:25N 43°40' W 005°56'3 5.0
2018-Apr-14 16:47N 43°38' W 005°58'  

Dump ship's entire track history